createdAt,value
2022-10-13T00:01:33.165Z,10.63
2022-10-13T00:04:00.875Z,9.73
2022-10-13T00:06:28.846Z,11.17
2022-10-13T00:08:57.346Z,9.83
2022-10-13T00:11:27.468Z,9.07
2022-10-13T00:13:59.693Z,10.03
2022-10-13T00:16:30.709Z,13.20
2022-10-13T00:18:59.021Z,10.17
2022-10-13T00:21:28.173Z,9.13
2022-10-13T00:23:57.582Z,8.23
2022-10-13T00:26:26.696Z,11.30
2022-10-13T00:28:56.980Z,10.03
2022-10-13T00:31:27.199Z,14.77
2022-10-13T00:33:56.573Z,9.30
2022-10-13T00:36:25.780Z,13.40
2022-10-13T00:38:54.238Z,11.80
2022-10-13T00:41:22.422Z,9.50
2022-10-13T00:44:01.699Z,9.93
2022-10-13T00:46:43.466Z,9.07
2022-10-13T00:49:14.660Z,10.87
2022-10-13T00:51:50.467Z,10.03
2022-10-13T00:54:21.932Z,10.57
2022-10-13T00:56:51.969Z,14.80
2022-10-13T00:59:24.715Z,12.23
2022-10-13T01:01:54.687Z,11.23
2022-10-13T01:04:26.531Z,9.83
2022-10-13T01:06:55.915Z,10.03
2022-10-13T01:09:23.629Z,8.57
2022-10-13T01:12:05.899Z,11.37
2022-10-13T01:14:57.425Z,8.80
2022-10-13T01:17:37.203Z,10.40
2022-10-13T01:20:39.435Z,10.07
2022-10-13T01:23:49.062Z,9.63
2022-10-13T01:26:52.491Z,23.57
2022-10-13T01:30:02.288Z,20.83
2022-10-13T01:32:44.192Z,13.70
2022-10-13T01:35:18.070Z,12.97
2022-10-13T01:37:54.814Z,10.97
2022-10-13T01:40:28.124Z,10.40
2022-10-13T01:43:01.903Z,12.03
2022-10-13T01:45:36.508Z,9.10
2022-10-13T01:48:06.862Z,10.40
2022-10-13T01:50:42.003Z,11.93
2022-10-13T01:53:11.058Z,10.97
2022-10-13T01:55:49.798Z,11.43
2022-10-13T01:58:17.519Z,12.23
2022-10-13T02:00:55.072Z,9.10
2022-10-13T02:03:35.276Z,10.90
2022-10-13T02:06:16.731Z,9.10
2022-10-13T02:08:51.405Z,12.27
2022-10-13T02:11:23.828Z,9.47
2022-10-13T02:14:08.728Z,8.67
2022-10-13T02:16:45.856Z,14.07
2022-10-13T02:19:25.775Z,9.37
2022-10-13T02:22:19.003Z,10.37
2022-10-13T02:25:10.515Z,9.97
2022-10-13T02:27:39.157Z,11.27
2022-10-13T02:30:08.006Z,10.87
2022-10-13T02:32:37.392Z,13.53
2022-10-13T02:35:06.083Z,10.50
2022-10-13T02:37:46.808Z,11.57
2022-10-13T02:40:33.247Z,10.80
2022-10-13T02:43:03.725Z,9.77
2022-10-13T02:45:31.815Z,13.00
2022-10-13T02:48:01.437Z,9.37
2022-10-13T02:50:31.745Z,10.17
2022-10-13T02:53:00.030Z,13.50
2022-10-13T02:55:31.346Z,8.50
2022-10-13T02:57:59.298Z,9.10
2022-10-13T03:00:29.481Z,12.67
2022-10-13T03:02:57.636Z,9.70
2022-10-13T03:05:27.345Z,9.43
2022-10-13T03:07:56.722Z,10.47
2022-10-13T03:10:25.098Z,11.90
2022-10-13T03:13:10.214Z,19.57
2022-10-13T03:15:38.104Z,18.50
2022-10-13T03:18:07.155Z,17.97
2022-10-13T03:20:36.364Z,15.80
2022-10-13T03:23:04.267Z,12.93
2022-10-13T03:25:32.616Z,11.77
2022-10-13T03:28:00.863Z,11.73
2022-10-13T03:30:29.565Z,11.10
2022-10-13T03:32:57.535Z,12.97
2022-10-13T03:35:26.666Z,15.67
2022-10-13T03:37:57.127Z,16.67
2022-10-13T03:40:25.933Z,12.33
2022-10-13T03:42:53.844Z,11.70
2022-10-13T03:45:22.169Z,16.03
2022-10-13T03:47:53.374Z,16.60
2022-10-13T03:50:21.338Z,14.47
2022-10-13T03:52:50.070Z,14.17
2022-10-13T03:55:19.547Z,14.47
2022-10-13T03:57:47.474Z,12.83
2022-10-13T04:03:01.395Z,14.80
2022-10-13T04:05:29.331Z,13.33
2022-10-13T04:07:58.941Z,12.57
2022-10-13T04:10:37.462Z,12.43
2022-10-13T04:13:05.747Z,14.60
2022-10-13T04:15:37.559Z,17.27
2022-10-13T04:18:08.828Z,17.90
2022-10-13T04:20:41.621Z,11.83
2022-10-13T04:23:09.655Z,12.10
2022-10-13T04:25:42.557Z,12.60
2022-10-13T04:28:12.799Z,15.77
2022-10-13T04:30:42.886Z,11.30
2022-10-13T04:33:13.760Z,12.77
2022-10-13T04:35:42.036Z,12.40
2022-10-13T04:38:10.363Z,11.03
2022-10-13T04:40:38.236Z,10.93
2022-10-13T04:43:08.740Z,12.17
2022-10-13T04:45:36.754Z,13.37
2022-10-13T04:48:05.898Z,14.67
2022-10-13T04:50:34.081Z,12.17
2022-10-13T04:55:44.791Z,11.50
2022-10-13T04:58:14.491Z,14.37
2022-10-13T05:00:56.869Z,13.43
2022-10-13T05:03:35.629Z,12.83
2022-10-13T05:06:09.379Z,12.60
2022-10-13T05:08:39.625Z,14.13
2022-10-13T05:11:07.465Z,12.63
2022-10-13T05:13:52.858Z,11.47
2022-10-13T05:16:24.858Z,13.50
2022-10-13T05:19:04.003Z,14.27
2022-10-13T05:21:32.222Z,13.50
2022-10-13T05:24:02.337Z,12.97
2022-10-13T05:30:32.918Z,14.90
2022-10-13T05:33:24.970Z,15.90
2022-10-13T05:39:02.932Z,13.90
2022-10-13T05:41:31.663Z,13.20
2022-10-13T05:44:01.581Z,14.93
2022-10-13T05:46:30.880Z,13.23
2022-10-13T05:48:58.990Z,19.10
2022-10-13T05:51:38.971Z,15.07
2022-10-13T05:54:18.486Z,15.07
2022-10-13T05:57:06.190Z,29.27
2022-10-13T05:59:41.192Z,26.43
2022-10-13T06:02:13.456Z,22.33
2022-10-13T06:04:48.983Z,18.40
2022-10-13T06:07:17.498Z,20.83
2022-10-13T06:09:45.873Z,22.37
2022-10-13T06:12:13.889Z,41.63
2022-10-13T06:14:42.142Z,33.80
2022-10-13T06:17:14.484Z,28.10
2022-10-13T06:19:46.572Z,25.90
2022-10-13T06:22:14.610Z,22.50
2022-10-13T06:24:43.236Z,21.87
2022-10-13T06:27:11.627Z,27.30
2022-10-13T06:29:39.688Z,25.03
2022-10-13T06:32:07.704Z,24.33
2022-10-13T06:34:37.181Z,19.20
2022-10-13T06:37:05.125Z,19.93
2022-10-13T06:39:33.093Z,23.50
2022-10-13T06:42:03.477Z,22.07
2022-10-13T06:44:32.289Z,24.40
2022-10-13T06:47:03.600Z,21.83
2022-10-13T06:49:31.505Z,21.73
2022-10-13T06:52:00.686Z,20.03
2022-10-13T06:54:28.453Z,19.27
2022-10-13T06:56:56.329Z,19.60
2022-10-13T06:59:26.307Z,20.03
2022-10-13T07:01:54.399Z,21.80
2022-10-13T07:04:22.932Z,22.00
2022-10-13T07:06:50.854Z,24.60
2022-10-13T07:09:20.496Z,20.43
2022-10-13T07:11:49.440Z,21.50
2022-10-13T07:14:17.341Z,20.13
2022-10-13T07:16:45.374Z,18.83
2022-10-13T07:19:13.293Z,23.53
2022-10-13T07:21:42.837Z,20.60
2022-10-13T07:24:12.231Z,16.83
2022-10-13T07:26:41.522Z,16.23
2022-10-13T07:29:10.142Z,15.00
2022-10-13T07:31:37.965Z,13.87
2022-10-13T07:34:06.632Z,17.10
2022-10-13T07:36:35.471Z,18.93
2022-10-13T07:39:03.916Z,14.70
2022-10-13T07:41:32.212Z,14.23
2022-10-13T07:44:01.408Z,18.83
2022-10-13T07:46:29.890Z,13.13
2022-10-13T07:48:57.815Z,17.52
2022-10-13T07:51:25.622Z,18.80
2022-10-13T07:53:53.367Z,13.88
2022-10-13T07:56:21.139Z,15.98
2022-10-13T07:58:49.182Z,15.63
2022-10-13T08:01:18.824Z,14.05
2022-10-13T08:03:50.143Z,17.35
2022-10-13T08:06:19.570Z,17.40
2022-10-13T08:08:48.325Z,14.27
2022-10-13T08:11:18.440Z,18.33
2022-10-13T08:13:50.769Z,15.93
2022-10-13T08:16:23.459Z,19.33
2022-10-13T08:18:51.581Z,17.63
2022-10-13T08:24:13.390Z,17.90
2022-10-13T08:26:41.886Z,21.02
2022-10-13T08:29:25.047Z,15.20
2022-10-13T08:31:54.863Z,17.90
2022-10-13T08:34:23.493Z,14.60
2022-10-13T08:36:53.532Z,14.13
2022-10-13T08:39:22.857Z,14.00
2022-10-13T08:41:51.546Z,15.18
2022-10-13T08:47:24.732Z,16.65
2022-10-13T08:49:56.465Z,18.05
2022-10-13T08:52:30.139Z,13.13
2022-10-13T08:54:58.814Z,15.93
2022-10-13T08:57:27.490Z,15.60
2022-10-13T08:59:55.574Z,20.17
2022-10-13T09:02:31.127Z,15.55
2022-10-13T09:05:03.824Z,13.35
2022-10-13T09:07:35.624Z,16.52
2022-10-13T09:10:04.031Z,16.45
2022-10-13T09:12:33.830Z,17.02
2022-10-13T09:15:05.189Z,13.60
2022-10-13T09:17:35.457Z,18.30
2022-10-13T09:20:06.066Z,13.90
2022-10-13T09:22:35.788Z,16.27
2022-10-13T09:25:17.210Z,13.70
2022-10-13T09:27:46.861Z,16.55
2022-10-13T09:30:31.909Z,16.45
2022-10-13T09:33:25.054Z,13.32
2022-10-13T09:36:11.052Z,16.95
2022-10-13T09:38:40.149Z,15.57
2022-10-13T09:41:15.152Z,16.80
2022-10-13T09:43:44.979Z,13.93
2022-10-13T09:46:24.963Z,17.60
2022-10-13T09:48:56.302Z,12.95
2022-10-13T09:51:46.441Z,17.63
2022-10-13T09:54:29.534Z,14.85
2022-10-13T09:57:03.561Z,16.88
2022-10-13T09:59:36.279Z,15.68
2022-10-13T10:02:21.350Z,16.10
2022-10-13T10:04:54.388Z,15.45
2022-10-13T10:07:27.342Z,14.25
2022-10-13T10:10:04.861Z,14.15
2022-10-13T10:12:36.964Z,17.67
2022-10-13T10:15:19.050Z,16.77
2022-10-13T10:17:53.454Z,16.20
2022-10-13T10:20:38.618Z,15.23
2022-10-13T10:23:12.484Z,15.25
2022-10-13T10:25:45.699Z,14.48
2022-10-13T10:28:35.430Z,13.15
2022-10-13T10:31:14.488Z,19.35
2022-10-13T10:33:52.276Z,21.48
2022-10-13T10:36:27.460Z,19.75
2022-10-13T10:39:02.043Z,15.52
2022-10-13T10:41:45.655Z,16.77
2022-10-13T10:44:16.915Z,13.43
2022-10-13T10:46:48.690Z,11.02
2022-10-13T10:49:20.871Z,15.30
2022-10-13T10:51:50.423Z,13.00
2022-10-13T10:54:30.825Z,11.43
2022-10-13T10:57:06.677Z,13.23
2022-10-13T10:59:51.651Z,12.95
2022-10-13T11:02:35.706Z,10.45
2022-10-13T11:05:06.346Z,11.77
2022-10-13T11:07:58.299Z,12.40
2022-10-13T11:10:27.196Z,14.05
2022-10-13T11:13:19.211Z,12.95
2022-10-13T11:15:47.564Z,12.60
2022-10-13T11:19:05.603Z,13.32
2022-10-13T11:22:11.455Z,12.15
2022-10-13T11:24:50.088Z,13.63
2022-10-13T11:27:29.534Z,10.57
2022-10-13T11:29:59.092Z,10.00
2022-10-13T11:32:55.357Z,14.70
2022-10-13T11:35:29.633Z,11.48
2022-10-13T11:38:18.970Z,11.10
2022-10-13T11:41:08.403Z,12.52
2022-10-13T11:43:54.118Z,15.50
2022-10-13T11:46:28.047Z,16.80
2022-10-13T11:49:19.202Z,10.95
2022-10-13T11:52:12.165Z,10.98
2022-10-13T11:54:48.795Z,9.95
2022-10-13T11:57:23.278Z,14.60
2022-10-13T11:59:55.342Z,8.38
2022-10-13T12:02:49.428Z,10.68
2022-10-13T12:05:23.365Z,10.10
2022-10-13T12:07:53.895Z,9.27
2022-10-13T12:10:25.718Z,8.82
2022-10-13T12:12:54.956Z,12.88
2022-10-13T12:15:42.857Z,12.13
2022-10-13T12:18:27.431Z,12.93
2022-10-13T12:20:56.059Z,8.00
2022-10-13T12:23:23.898Z,10.60
2022-10-13T12:25:57.752Z,10.88
2022-10-13T12:28:29.008Z,8.45
2022-10-13T12:30:59.541Z,8.23
2022-10-13T12:33:30.225Z,7.72
2022-10-13T12:36:12.819Z,8.50
2022-10-13T12:38:46.622Z,7.57
2022-10-13T12:41:18.004Z,12.73
2022-10-13T12:43:47.578Z,8.30
2022-10-13T12:46:36.365Z,5.80
2022-10-13T12:49:08.382Z,6.82
2022-10-13T12:51:39.412Z,8.95
2022-10-13T12:54:08.813Z,9.30
2022-10-13T12:56:36.988Z,11.93
2022-10-13T12:59:14.911Z,11.73
2022-10-13T13:01:44.976Z,11.45
2022-10-13T13:04:28.441Z,9.98
2022-10-13T13:06:57.663Z,9.25
2022-10-13T13:09:28.138Z,9.93
2022-10-13T13:12:21.795Z,9.02
2022-10-13T13:14:54.792Z,12.35
2022-10-13T13:20:22.974Z,9.43
2022-10-13T13:22:51.745Z,11.57
2022-10-13T13:25:19.782Z,10.40
2022-10-13T13:27:47.510Z,9.70
2022-10-13T13:30:21.306Z,7.82
2022-10-13T13:32:50.289Z,6.90
2022-10-13T13:35:18.443Z,10.05
2022-10-13T13:37:49.565Z,7.35
2022-10-13T13:40:19.863Z,6.25
2022-10-13T13:42:47.663Z,9.27
2022-10-13T13:45:18.497Z,7.70
2022-10-13T13:47:47.702Z,7.82
2022-10-13T13:50:18.573Z,9.00
2022-10-13T13:52:56.935Z,8.82
2022-10-13T13:55:24.705Z,6.50
2022-10-13T13:57:52.752Z,9.90
2022-10-13T14:00:21.125Z,9.75
2022-10-13T14:02:56.933Z,8.23
2022-10-13T14:05:24.862Z,9.55
2022-10-13T14:07:54.801Z,9.70
2022-10-13T14:10:22.498Z,7.03
2022-10-13T14:12:50.252Z,9.00
2022-10-13T14:15:18.072Z,9.43
2022-10-13T14:17:45.880Z,8.60
2022-10-13T14:20:14.943Z,12.88
2022-10-13T14:22:42.799Z,10.43
2022-10-13T14:25:11.508Z,8.70
2022-10-13T14:27:39.303Z,10.73
2022-10-13T14:30:10.396Z,8.73
2022-10-13T14:32:38.664Z,8.40
2022-10-13T14:35:07.705Z,8.00
2022-10-13T14:37:36.962Z,9.88
2022-10-13T14:40:05.559Z,10.90
2022-10-13T14:42:33.370Z,9.48
2022-10-13T14:45:02.691Z,9.55
2022-10-13T14:47:30.422Z,9.73
2022-10-13T14:49:58.266Z,8.73
2022-10-13T14:52:26.062Z,11.73
2022-10-13T14:54:55.180Z,12.40
2022-10-13T14:57:23.325Z,10.52
2022-10-13T14:59:51.286Z,14.60
2022-10-13T15:02:19.098Z,8.50
2022-10-13T15:04:53.563Z,9.68
2022-10-13T15:07:23.162Z,10.93
2022-10-13T15:10:00.582Z,11.05
2022-10-13T15:12:34.933Z,10.85
2022-10-13T15:15:04.071Z,16.63
2022-10-13T15:17:34.288Z,10.00
2022-10-13T15:20:02.159Z,9.88
2022-10-13T15:22:30.784Z,11.63
2022-10-13T15:24:58.845Z,11.57
2022-10-13T15:27:26.747Z,10.88
2022-10-13T15:29:55.937Z,12.07
2022-10-13T15:32:24.077Z,12.55
2022-10-13T15:34:55.742Z,10.82
2022-10-13T15:37:23.598Z,12.80
2022-10-13T15:39:56.253Z,15.18
2022-10-13T15:42:25.189Z,12.90
2022-10-13T15:45:11.115Z,12.38
2022-10-13T15:47:40.697Z,13.38
2022-10-13T15:50:09.302Z,16.55
2022-10-13T15:52:39.753Z,14.90
2022-10-13T15:55:08.211Z,14.48
2022-10-13T15:57:39.988Z,12.43
2022-10-13T16:00:09.585Z,18.70
2022-10-13T16:02:42.092Z,14.48
2022-10-13T16:05:11.604Z,13.25
2022-10-13T16:07:40.097Z,16.90
2022-10-13T16:10:09.124Z,19.27
2022-10-13T16:12:37.592Z,12.27
2022-10-13T16:15:06.359Z,17.48
2022-10-13T16:17:34.652Z,16.80
2022-10-13T16:20:04.681Z,20.17
2022-10-13T16:22:33.198Z,23.00
2022-10-13T16:25:00.890Z,12.48
2022-10-13T16:27:28.884Z,14.20
2022-10-13T16:29:56.700Z,16.67
2022-10-13T16:32:24.651Z,16.98
2022-10-13T16:34:52.364Z,19.88
2022-10-13T16:37:22.716Z,19.08
2022-10-13T16:39:51.987Z,17.13
2022-10-13T16:42:20.287Z,14.77
2022-10-13T16:44:48.072Z,19.35
2022-10-13T16:47:18.447Z,15.55
2022-10-13T16:49:46.563Z,14.18
2022-10-13T16:52:15.948Z,17.23
2022-10-13T16:55:02.905Z,14.50
2022-10-13T16:57:31.205Z,13.77
2022-10-13T16:59:58.957Z,16.63
2022-10-13T17:02:29.372Z,18.77
2022-10-13T17:04:57.216Z,13.52
2022-10-13T17:07:25.669Z,14.45
2022-10-13T17:09:56.226Z,13.68
2022-10-13T17:15:24.839Z,16.38
2022-10-13T17:17:54.632Z,14.90
2022-10-13T17:23:09.648Z,13.95
2022-10-13T17:25:37.671Z,13.55
2022-10-13T17:28:11.643Z,11.48
2022-10-13T17:30:40.136Z,12.18
2022-10-13T17:33:08.871Z,11.75
2022-10-13T17:35:37.512Z,12.13
2022-10-13T17:38:07.737Z,12.23
2022-10-13T17:40:36.379Z,11.50
2022-10-13T17:43:04.190Z,11.15
2022-10-13T17:45:33.247Z,18.20
2022-10-13T17:48:01.328Z,18.60
2022-10-13T17:50:31.141Z,14.73
2022-10-13T17:52:58.935Z,16.40
2022-10-13T17:55:26.693Z,12.07
2022-10-13T17:57:54.613Z,11.18
2022-10-13T18:00:22.422Z,12.38
2022-10-13T18:02:51.828Z,13.35
2022-10-13T18:05:19.562Z,13.23
2022-10-13T18:07:47.265Z,10.95
2022-10-13T18:10:17.681Z,13.25
2022-10-13T18:12:45.557Z,10.50
2022-10-13T18:15:13.574Z,12.43
2022-10-13T18:17:41.264Z,10.55
2022-10-13T18:20:11.536Z,11.02
2022-10-13T18:22:39.257Z,12.95
2022-10-13T18:25:08.898Z,13.43
2022-10-13T18:27:36.656Z,13.02
2022-10-13T18:30:05.430Z,10.88
2022-10-13T18:32:34.990Z,13.13
2022-10-13T18:35:03.045Z,13.88
2022-10-13T18:37:32.212Z,13.20
2022-10-13T18:39:59.984Z,11.85
2022-10-13T18:42:27.861Z,13.35
2022-10-13T18:44:56.117Z,9.80
2022-10-13T18:47:26.904Z,13.48
2022-10-13T18:49:54.953Z,11.52
2022-10-13T18:52:24.446Z,11.75
2022-10-13T18:54:54.505Z,18.48
2022-10-13T18:57:23.038Z,11.00
2022-10-13T18:59:51.247Z,9.20
2022-10-13T19:02:19.482Z,8.95
2022-10-13T19:04:47.594Z,10.73
2022-10-13T19:07:17.266Z,9.20
2022-10-13T19:09:45.124Z,10.43
2022-10-13T19:12:14.533Z,6.47
2022-10-13T19:14:42.265Z,7.18
2022-10-13T19:17:10.251Z,9.75
2022-10-13T19:19:39.068Z,8.65
2022-10-13T19:22:07.815Z,5.82
2022-10-13T19:24:35.734Z,6.85
2022-10-13T19:27:03.619Z,5.65
2022-10-13T19:29:34.206Z,6.47
2022-10-13T19:32:06.302Z,4.38
2022-10-13T19:34:34.734Z,8.13
2022-10-13T19:37:05.265Z,7.78
2022-10-13T19:39:39.470Z,6.47
2022-10-13T19:42:07.235Z,4.75
2022-10-13T19:44:36.470Z,6.55
2022-10-13T19:47:04.705Z,6.22
2022-10-13T19:49:34.035Z,6.90
2022-10-13T19:52:03.196Z,7.53
2022-10-13T19:54:45.023Z,7.53
2022-10-13T19:57:13.342Z,6.00
2022-10-13T19:59:47.379Z,5.82
2022-10-13T20:02:16.836Z,7.88
2022-10-13T20:04:45.705Z,5.47
2022-10-13T20:07:14.207Z,5.18
2022-10-13T20:09:42.217Z,6.32
2022-10-13T20:12:10.498Z,4.38
2022-10-13T20:14:43.189Z,6.45
2022-10-13T20:17:11.084Z,4.15
2022-10-13T20:19:39.536Z,5.30
2022-10-13T20:22:10.291Z,5.65
2022-10-13T20:24:38.377Z,6.07
2022-10-13T20:27:07.015Z,6.65
2022-10-13T20:29:35.999Z,9.00
2022-10-13T20:32:05.644Z,8.98
2022-10-13T20:34:34.089Z,4.90
2022-10-13T20:37:01.795Z,6.55
2022-10-13T20:39:30.216Z,7.78
2022-10-13T20:41:58.105Z,6.18
2022-10-13T20:44:26.558Z,5.35
2022-10-13T20:46:55.052Z,9.38
2022-10-13T20:49:24.952Z,11.20
2022-10-13T20:51:52.757Z,7.25
2022-10-13T20:54:20.592Z,10.27
2022-10-13T20:56:48.629Z,6.32
2022-10-13T20:59:16.879Z,11.27
2022-10-13T21:01:44.779Z,15.23
2022-10-13T21:04:12.561Z,14.43
2022-10-13T21:06:42.140Z,8.95
2022-10-13T21:09:10.571Z,5.32
2022-10-13T21:11:40.565Z,7.57
2022-10-13T21:14:09.589Z,3.97
2022-10-13T21:16:38.484Z,5.93
2022-10-13T21:19:10.302Z,4.63
2022-10-13T21:21:38.249Z,6.40
2022-10-13T21:24:09.419Z,7.18
2022-10-13T21:26:37.870Z,8.02
2022-10-13T21:29:06.126Z,7.53
2022-10-13T21:31:35.599Z,5.03
2022-10-13T21:34:04.323Z,7.35
2022-10-13T21:36:33.377Z,4.18
2022-10-13T21:39:02.736Z,8.68
2022-10-13T21:41:32.238Z,7.03
2022-10-13T21:44:00.365Z,5.35
2022-10-13T21:46:33.471Z,5.55
2022-10-13T21:49:02.971Z,3.92
2022-10-13T21:51:32.710Z,6.82
2022-10-13T21:54:02.347Z,4.30
2022-10-13T21:56:33.290Z,4.53
2022-10-13T21:59:01.446Z,4.05
2022-10-13T22:01:29.829Z,18.08
2022-10-13T22:04:02.024Z,6.68
2022-10-13T22:06:31.921Z,5.50
2022-10-13T22:09:01.828Z,5.15
2022-10-13T22:11:32.712Z,5.72
2022-10-13T22:14:05.217Z,11.30
2022-10-13T22:16:35.383Z,5.07
2022-10-13T22:19:03.645Z,5.15
2022-10-13T22:21:37.161Z,6.38
2022-10-13T22:24:07.913Z,5.50
2022-10-13T22:26:54.446Z,6.32
2022-10-13T22:29:24.225Z,8.70
2022-10-13T22:31:56.978Z,4.07
2022-10-13T22:34:25.763Z,6.18
2022-10-13T22:36:54.697Z,5.20
2022-10-13T22:39:23.480Z,6.82
2022-10-13T22:41:55.842Z,7.00
2022-10-13T22:44:24.867Z,5.30
2022-10-13T22:46:53.265Z,9.27
2022-10-13T22:49:21.341Z,8.45
2022-10-13T22:51:49.467Z,9.10
2022-10-13T22:54:20.518Z,5.93
2022-10-13T22:56:48.503Z,4.43
2022-10-13T22:59:17.535Z,5.68
2022-10-13T23:01:45.282Z,6.38
2022-10-13T23:04:13.212Z,7.63
2022-10-13T23:06:40.887Z,8.18
2022-10-13T23:09:13.053Z,12.50
2022-10-13T23:11:40.881Z,6.57
2022-10-13T23:14:11.665Z,5.75
2022-10-13T23:16:44.519Z,9.23
2022-10-13T23:19:17.715Z,6.10
2022-10-13T23:21:46.439Z,6.55
2022-10-13T23:24:14.246Z,5.22
2022-10-13T23:26:42.022Z,6.47
2022-10-13T23:29:10.544Z,6.60
2022-10-13T23:31:39.738Z,9.07
2022-10-13T23:34:07.592Z,9.70
2022-10-13T23:36:35.283Z,12.38
2022-10-13T23:39:07.744Z,9.07
2022-10-13T23:41:35.457Z,7.25
2022-10-13T23:44:03.463Z,8.93
2022-10-13T23:46:31.397Z,9.68
2022-10-13T23:49:00.458Z,8.10
2022-10-13T23:51:28.381Z,7.95
2022-10-13T23:53:56.782Z,8.50
2022-10-13T23:56:24.702Z,10.75
2022-10-13T23:58:52.486Z,7.78
